Impacts METAR Board INFO
IDs:

KDEN - Denver Intl, CO, US

Updated at: 0343 UTC 20 Nov 2017
Potential Impact None Slight Moderate High
Time19/15Z 19/16Z 19/17Z 19/18Z 19/19Z 19/20Z 19/21Z 19/22Z 19/23Z 20/00Z 20/01Z 20/02Z 20/03Z
VIS10 10 10 10 10 10 10 10 10 10 10 10 10
CIG250 140 250 250 220 220 220 220 220 200 200 220 200
CoverBKNBKNBKNBKNBKNBKNBKNBKNBKNBKNBKNBKNBKN
FltCatVFRVFRVFRVFRVFRVFRVFRVFRVFRVFRVFRVFRVFR
WX--------------------------
WDir2002001502102002400290310280290280250
WSpd14 9 6 10 7 8 4 12 7 8 11 9 7
WGst-- -- -- -- -- -- -- 16 -- -- -- -- --
Raw hourly METARs
KDEN 191453Z 20014KT 10SM SCT140 BKN250 03/M09 A3014 RMK AO2 SLP210 T00331094 56006
KDEN 191553Z 20009KT 10SM BKN140 BKN250 05/M09 A3013 RMK AO2 SLP202 T00501094
KDEN 191653Z 15006KT 10SM FEW140 BKN250 06/M06 A3012 RMK AO2 SLP201 ACSL OMTNS DSNT W T00611061
KDEN 191753Z 21010KT 10SM SCT140 BKN250 12/M10 A3010 RMK AO2 SLP178 ACSL DSNT SW-W T01221100 10122 21039 58012
KDEN 191853Z 20007KT 10SM SCT140 BKN220 14/M13 A3006 RMK AO2 SLP156 ACSL OMTNS DSNT SW-NW T01441128
KDEN 191953Z 24008KT 10SM FEW140 BKN220 16/M16 A3004 RMK AO2 SLP146 ACSL OMTNS DSNT W-NW T01561156
KDEN 192053Z VRB04KT 10SM SCT140 BKN220 16/M16 A3001 RMK AO2 SLP145 ACSL SW-N T01561161 56024
KDEN 192153Z 29012G16KT 10SM SCT140 BKN220 14/M14 A3001 RMK AO2 WSHFT 2104 SLP143 ACSL DSNT SW-NW T01391139
KDEN 192253Z 31007KT 10SM FEW140 BKN220 12/M12 A3000 RMK AO2 SLP147 ACSL SW-NW T01171122
KDEN 192353Z 28008KT 10SM FEW160 BKN200 12/M16 A2998 RMK AO2 SLP139 T01171161 10161 20106 58009
KDEN 200053Z 29011KT 10SM BKN200 11/M16 A2998 RMK AO2 SLP143 T01111161
KDEN 200153Z 28009KT 10SM BKN220 11/M17 A2997 RMK AO2 SLP128 T01061172
KDEN 200253Z 25007KT 10SM BKN200 08/M13 A2997 RMK AO2 SLP129 T00831128 58003